Watford, Canada
Current Conditions -  °F | °C
As of 11:00 PM on Sunday 23 Nov 2014 (Local Time) from CYZR Reporting Station
Light Rain Light Rain  
Wind Chill: 41°   Ceiling: 1000
Heat Index: 48°   Visibility: 5mi
Dew Point: 46°   Wind: 23mph
Humidity: 93%   Direction: 140°SE
Pressure: 29.37"   Gusts: 29mph
Location:  42.95°N, 81.88°W
Report Text: CYZR 240400Z AUTO 14020G25KT 5SM -RA BR BKN010 BKN024 OVC036 09/08 A2937 RMK PRESFR PCPN 5.2MM PAST HR SLP948 DENSITY ALT 700FT
Loading
Personal Weather Stations






























Interactive Weather Map New forecast layout! Learn more

10-Day Weather Forecast

Advertisements
Track Severe Weather on mobile